createdAt,value
2023-06-11T00:03:54.539Z,84.77
2023-06-11T00:08:56.831Z,84.48
2023-06-11T00:13:58.578Z,84.08
2023-06-11T00:19:00.336Z,83.75
2023-06-11T00:24:02.842Z,84.11
2023-06-11T00:29:04.842Z,84.30
2023-06-11T00:34:06.840Z,84.32
2023-06-11T00:39:08.697Z,84.38
2023-06-11T00:44:10.547Z,84.61
2023-06-11T00:49:12.895Z,84.56
2023-06-11T00:54:17.670Z,84.49
2023-06-11T00:59:21.060Z,84.58
2023-06-11T01:04:24.832Z,84.87
2023-06-11T01:09:28.811Z,85.02
2023-06-11T01:14:33.553Z,84.95
2023-06-11T01:19:38.533Z,85.56
2023-06-11T01:25:09.996Z,85.61
2023-06-11T01:30:21.821Z,86.11
2023-06-11T01:35:25.651Z,86.32
2023-06-11T01:40:28.724Z,86.53
2023-06-11T01:45:34.021Z,86.68
2023-06-11T01:50:36.413Z,86.81
2023-06-11T01:55:38.256Z,87.03
2023-06-11T02:00:40.132Z,87.09
2023-06-11T02:05:41.830Z,87.08
2023-06-11T02:10:46.581Z,87.19
2023-06-11T02:15:48.310Z,87.22
2023-06-11T02:20:50.540Z,87.40
2023-06-11T02:25:54.513Z,87.57
2023-06-11T02:30:56.253Z,87.40
2023-06-11T02:35:58.055Z,87.22
2023-06-11T02:40:59.834Z,87.32
2023-06-11T02:46:01.734Z,87.35
2023-06-11T02:51:03.530Z,87.36
2023-06-11T02:56:05.433Z,87.61
2023-06-11T03:01:07.197Z,87.47
2023-06-11T03:06:09.788Z,85.95
2023-06-11T03:11:11.884Z,84.20
2023-06-11T03:16:18.899Z,82.75
2023-06-11T03:21:20.979Z,80.89
2023-06-11T03:26:23.220Z,79.18
2023-06-11T03:31:25.395Z,77.26
2023-06-11T03:36:27.522Z,75.50
2023-06-11T03:41:30.108Z,73.51
2023-06-11T03:46:32.656Z,72.15
2023-06-11T03:51:35.317Z,75.22
2023-06-11T03:56:38.035Z,78.86
2023-06-11T04:07:13.671Z,81.99
2023-06-11T04:12:16.024Z,82.69
2023-06-11T04:17:19.048Z,82.84
2023-06-11T04:22:22.050Z,82.81
2023-06-11T04:27:24.140Z,82.81
2023-06-11T04:32:28.057Z,82.72
2023-06-11T04:37:32.076Z,82.32
2023-06-11T04:42:35.989Z,81.91
2023-06-11T04:47:38.772Z,81.20
2023-06-11T04:52:44.040Z,80.90
2023-06-11T04:57:47.535Z,80.11
2023-06-11T05:02:50.951Z,77.55
2023-06-11T05:07:52.961Z,76.55
2023-06-11T05:12:55.522Z,75.69
2023-06-11T05:17:59.255Z,74.53
2023-06-11T05:23:03.871Z,72.53
2023-06-11T05:28:08.846Z,73.24
2023-06-11T05:33:11.716Z,74.10
2023-06-11T05:38:14.538Z,74.01
2023-06-11T05:43:17.826Z,74.16
2023-06-11T05:48:20.036Z,73.31
2023-06-11T05:53:23.083Z,73.24
2023-06-11T05:58:25.331Z,72.99
2023-06-11T06:03:27.409Z,72.27
2023-06-11T06:08:30.900Z,72.08
2023-06-11T06:13:33.408Z,71.70
2023-06-11T06:18:40.087Z,70.53
2023-06-11T06:23:42.056Z,69.42
2023-06-11T06:28:45.593Z,68.22
2023-06-11T06:33:48.215Z,65.46
2023-06-11T06:38:50.628Z,63.68
2023-06-11T06:43:53.913Z,62.73
2023-06-11T06:48:58.083Z,62.96
2023-06-11T06:54:01.036Z,63.27
2023-06-11T06:59:02.927Z,62.16
2023-06-11T07:04:06.068Z,61.90
2023-06-11T07:09:08.055Z,60.12
2023-06-11T07:14:10.157Z,59.78
2023-06-11T07:19:12.161Z,61.26
2023-06-11T07:24:14.500Z,61.87
2023-06-11T07:29:16.551Z,62.20
2023-06-11T07:34:20.757Z,60.48
2023-06-11T07:39:23.272Z,60.47
2023-06-11T07:44:26.125Z,60.76
2023-06-11T07:49:28.057Z,61.49
2023-06-11T07:54:30.656Z,60.99
2023-06-11T07:59:32.322Z,61.16
2023-06-11T08:04:34.385Z,61.30
2023-06-11T08:09:37.537Z,60.89
2023-06-11T08:14:39.302Z,60.56
2023-06-11T08:19:41.031Z,61.37
2023-06-11T08:24:42.696Z,60.18
2023-06-11T08:29:44.351Z,60.50
2023-06-11T08:34:46.122Z,60.43
2023-06-11T08:39:47.834Z,60.78
2023-06-11T08:44:49.954Z,61.49
2023-06-11T08:49:52.670Z,61.63
2023-06-11T08:54:55.049Z,61.25
2023-06-11T08:59:57.251Z,59.69
2023-06-11T09:04:59.353Z,57.37
2023-06-11T09:10:08.290Z,55.95
2023-06-11T09:15:10.865Z,56.49
2023-06-11T09:20:14.605Z,58.21
2023-06-11T09:25:19.773Z,56.54
2023-06-11T09:30:21.840Z,54.10
2023-06-11T09:35:23.840Z,52.29
2023-06-11T09:40:25.740Z,51.84
2023-06-11T09:45:27.989Z,50.55
2023-06-11T09:50:33.510Z,51.03
2023-06-11T09:55:38.502Z,52.05
2023-06-11T10:00:40.888Z,51.43
2023-06-11T10:05:43.199Z,52.76
2023-06-11T10:10:47.030Z,53.29
2023-06-11T10:15:49.681Z,52.42
2023-06-11T10:20:55.980Z,52.28
2023-06-11T10:25:59.118Z,53.26
2023-06-11T10:31:01.099Z,53.25
2023-06-11T10:36:03.227Z,51.81
2023-06-11T10:41:06.018Z,49.81
2023-06-11T10:46:13.556Z,48.27
2023-06-11T10:51:15.536Z,47.46
2023-06-11T10:56:22.341Z,48.14
2023-06-11T11:01:24.284Z,47.51
2023-06-11T11:06:28.120Z,46.60
2023-06-11T11:11:30.241Z,45.42
2023-06-11T11:16:32.117Z,44.66
2023-06-11T11:21:33.944Z,46.81
2023-06-11T11:26:42.825Z,47.91
2023-06-11T11:31:46.280Z,48.12
2023-06-11T11:36:48.116Z,47.82
2023-06-11T11:41:51.392Z,47.31
2023-06-11T11:46:57.480Z,45.78
2023-06-11T11:52:02.040Z,46.39
2023-06-11T11:57:07.980Z,46.29
2023-06-11T12:02:10.455Z,46.58
2023-06-11T12:07:14.604Z,46.05
2023-06-11T12:12:16.520Z,47.37
2023-06-11T12:17:18.285Z,46.27
2023-06-11T12:22:20.793Z,46.48
2023-06-11T12:27:24.210Z,46.53
2023-06-11T12:32:26.509Z,44.25
2023-06-11T12:37:29.273Z,43.62
2023-06-11T12:42:33.475Z,43.71
2023-06-11T12:47:36.104Z,43.89
2023-06-11T12:52:40.485Z,43.67
2023-06-11T12:57:42.339Z,45.07
2023-06-11T13:02:45.353Z,46.50
2023-06-11T13:07:48.465Z,45.50
2023-06-11T13:12:52.829Z,43.52
2023-06-11T13:17:54.645Z,44.54
2023-06-11T13:22:56.455Z,45.47
2023-06-11T13:27:58.260Z,45.25
2023-06-11T13:33:01.646Z,44.23
2023-06-11T13:38:03.388Z,43.34
2023-06-11T13:43:05.180Z,43.30
2023-06-11T13:48:14.773Z,45.60
2023-06-11T13:53:17.934Z,45.78
2023-06-11T13:58:22.158Z,43.84
2023-06-11T14:03:23.899Z,41.80
2023-06-11T14:08:25.611Z,43.13
2023-06-11T14:13:27.460Z,41.62
2023-06-11T14:18:29.206Z,41.10
2023-06-11T14:23:30.899Z,40.08
2023-06-11T14:28:32.779Z,40.51
2023-06-11T14:33:34.478Z,41.05
2023-06-11T14:38:36.235Z,40.23
2023-06-11T14:43:37.937Z,41.16
2023-06-11T14:48:39.624Z,41.71
2023-06-11T14:53:41.368Z,41.02
2023-06-11T14:58:47.624Z,41.73
2023-06-11T15:03:49.405Z,43.01
2023-06-11T15:08:51.698Z,41.81
2023-06-11T15:13:53.465Z,39.63
2023-06-11T15:18:56.142Z,40.41
2023-06-11T15:23:58.063Z,40.18
2023-06-11T15:29:00.191Z,40.17
2023-06-11T15:34:01.981Z,40.40
2023-06-11T15:39:03.878Z,40.51
2023-06-11T15:44:05.791Z,40.03
2023-06-11T15:49:07.482Z,39.90
2023-06-11T15:54:09.465Z,39.83
2023-06-11T15:59:11.295Z,40.18
2023-06-11T16:04:14.284Z,40.90
2023-06-11T16:09:16.573Z,43.21
2023-06-11T16:14:20.101Z,43.18
2023-06-11T16:19:21.940Z,42.26
2023-06-11T16:24:23.690Z,42.17
2023-06-11T16:29:25.458Z,42.14
2023-06-11T16:34:27.191Z,40.53
2023-06-11T16:39:38.558Z,40.34
2023-06-11T16:44:40.441Z,40.03
2023-06-11T16:49:42.254Z,39.62
2023-06-11T16:54:44.148Z,39.47
2023-06-11T16:59:45.944Z,39.99
2023-06-11T17:04:47.691Z,39.34
2023-06-11T17:09:49.558Z,39.62
2023-06-11T17:14:54.284Z,40.40
2023-06-11T17:19:56.305Z,41.24
2023-06-11T17:24:58.317Z,41.70
2023-06-11T17:30:00.022Z,41.82
2023-06-11T17:35:03.936Z,42.16
2023-06-11T17:40:07.621Z,42.50
2023-06-11T17:45:12.492Z,42.71
2023-06-11T17:50:14.461Z,43.04
2023-06-11T17:55:16.751Z,43.05
2023-06-11T18:00:18.923Z,43.37
2023-06-11T18:05:20.804Z,43.84
2023-06-11T18:10:22.784Z,44.49
2023-06-11T18:15:33.177Z,45.32
2023-06-11T18:20:37.051Z,46.05
2023-06-11T18:25:38.791Z,46.60
2023-06-11T18:30:40.799Z,47.07
2023-06-11T18:35:42.825Z,48.44
2023-06-11T18:40:44.527Z,49.81
2023-06-11T18:45:46.218Z,50.72
2023-06-11T18:50:48.060Z,51.09
2023-06-11T18:55:50.056Z,52.09
2023-06-11T19:00:51.947Z,54.14
2023-06-11T19:05:53.741Z,55.55
2023-06-11T19:10:55.633Z,56.31
2023-06-11T19:15:57.874Z,56.98
2023-06-11T19:20:59.556Z,57.72
2023-06-11T19:26:01.352Z,58.86
2023-06-11T19:31:03.110Z,59.99
2023-06-11T19:36:05.392Z,60.75
2023-06-11T19:41:07.207Z,61.30
2023-06-11T19:46:08.990Z,60.81
2023-06-11T19:51:12.173Z,60.90
2023-06-11T19:56:18.070Z,61.06
2023-06-11T20:01:21.248Z,61.30
2023-06-11T20:06:23.047Z,62.13
2023-06-11T20:11:24.796Z,61.86
2023-06-11T20:16:27.526Z,62.49
2023-06-11T20:21:29.429Z,63.29
2023-06-11T20:26:31.671Z,63.40
2023-06-11T20:31:34.629Z,64.15
2023-06-11T20:36:36.773Z,65.10
2023-06-11T20:41:38.598Z,67.26
2023-06-11T20:46:40.759Z,68.33
2023-06-11T20:51:42.520Z,69.65
2023-06-11T20:56:44.250Z,69.60
2023-06-11T21:01:46.196Z,69.28
2023-06-11T21:06:47.967Z,70.11
2023-06-11T21:11:50.084Z,69.41
2023-06-11T21:16:52.337Z,69.06
2023-06-11T21:21:54.147Z,69.56
2023-06-11T21:26:55.905Z,69.12
2023-06-11T21:31:57.751Z,69.23
2023-06-11T21:36:59.643Z,69.49
2023-06-11T21:42:01.422Z,69.83
2023-06-11T21:47:03.494Z,70.39
2023-06-11T21:52:06.876Z,70.73
2023-06-11T21:57:09.764Z,71.42
2023-06-11T22:02:12.479Z,71.92
2023-06-11T22:07:14.203Z,71.55
2023-06-11T22:12:16.020Z,72.68
2023-06-11T22:17:18.402Z,74.01
2023-06-11T22:22:20.513Z,74.67
2023-06-11T22:27:23.006Z,75.16
2023-06-11T22:32:24.757Z,75.83
2023-06-11T22:37:26.459Z,76.59
2023-06-11T22:42:28.158Z,76.91
2023-06-11T22:47:30.273Z,77.35
2023-06-11T22:52:39.692Z,77.63
2023-06-11T22:57:42.124Z,77.83
2023-06-11T23:02:45.606Z,78.11
2023-06-11T23:07:47.658Z,78.25
2023-06-11T23:12:49.931Z,78.43
2023-06-11T23:17:54.844Z,78.81
2023-06-11T23:22:57.451Z,78.75
2023-06-11T23:28:00.006Z,79.00
2023-06-11T23:33:03.536Z,79.74
2023-06-11T23:38:07.244Z,80.00
2023-06-11T23:43:08.991Z,80.15
2023-06-11T23:48:10.761Z,80.33
2023-06-11T23:53:13.798Z,80.41
2023-06-11T23:58:22.318Z,80.73
